Terminal Aerodrome Forecast
Issued by NWS

Home | Current Version | Previous Version | Text Only | Print | Product List | Glossary Off
Versions: 1 2 3 4 5 6 7 8 9 10 11 12 13

000
FTUS43 KIWX 211122
TAFSBN
TAF
KSBN 211122Z 2112/2212 20009KT P6SM VCSH BKN007
      TEMPO 2112/2113 -SHRA
     FM211400 24008KT P6SM BKN015
     FM211500 25009KT P6SM BKN025
     FM211700 25012G19KT P6SM BKN050
     FM220000 26009KT P6SM SCT050=

USA.gov is the U.S. government's official web portal to all federal, state and local government web resources and services.